sensor_id;sensor_type;location;lat;lon;timestamp;P1;durP1;ratioP1;P2;durP2;ratioP2
78960;SDS011;68362;45.970;12.646;2024-01-06T00:00:07;3.17;;;1.27;;
78960;SDS011;68362;45.970;12.646;2024-01-06T00:01:10;9.88;;;2.85;;
78960;SDS011;68362;45.970;12.646;2024-01-06T00:02:18;29.73;;;8.48;;
78960;SDS011;68362;45.970;12.646;2024-01-06T00:03:20;20.80;;;6.38;;
78960;SDS011;68362;45.970;12.646;2024-01-06T00:04:22;41.83;;;11.02;;
78960;SDS011;68362;45.970;12.646;2024-01-06T00:05:25;34.38;;;11.57;;
78960;SDS011;68362;45.970;12.646;2024-01-06T00:06:27;38.97;;;12.20;;
78960;SDS011;68362;45.970;12.646;2024-01-06T00:07:29;36.78;;;11.90;;
78960;SDS011;68362;45.970;12.646;2024-01-06T00:08:31;46.75;;;13.32;;
78960;SDS011;68362;45.970;12.646;2024-01-06T00:09:34;27.73;;;9.07;;
78960;SDS011;68362;45.970;12.646;2024-01-06T00:10:36;26.17;;;8.32;;
78960;SDS011;68362;45.970;12.646;2024-01-06T00:11:38;17.48;;;6.38;;
78960;SDS011;68362;45.970;12.646;2024-01-06T00:12:40;14.50;;;5.15;;
78960;SDS011;68362;45.970;12.646;2024-01-06T00:13:43;5.22;;;2.60;;
78960;SDS011;68362;45.970;12.646;2024-01-06T00:14:45;5.78;;;2.05;;
78960;SDS011;68362;45.970;12.646;2024-01-06T00:15:47;1.48;;;0.95;;
78960;SDS011;68362;45.970;12.646;2024-01-06T00:16:49;4.65;;;1.88;;
78960;SDS011;68362;45.970;12.646;2024-01-06T00:17:52;1.73;;;1.00;;
78960;SDS011;68362;45.970;12.646;2024-01-06T00:18:54;4.45;;;1.05;;
78960;SDS011;68362;45.970;12.646;2024-01-06T00:19:56;3.22;;;1.85;;
78960;SDS011;68362;45.970;12.646;2024-01-06T00:20:58;3.58;;;0.95;;
78960;SDS011;68362;45.970;12.646;2024-01-06T00:22:01;2.50;;;1.13;;
78960;SDS011;68362;45.970;12.646;2024-01-06T00:23:03;1.85;;;0.80;;
78960;SDS011;68362;45.970;12.646;2024-01-06T00:24:05;2.88;;;0.88;;
78960;SDS011;68362;45.970;12.646;2024-01-06T00:25:08;3.72;;;0.80;;
78960;SDS011;68362;45.970;12.646;2024-01-06T00:26:10;2.45;;;1.25;;
78960;SDS011;68362;45.970;12.646;2024-01-06T00:27:12;6.85;;;1.63;;
78960;SDS011;68362;45.970;12.646;2024-01-06T00:28:15;9.88;;;2.40;;
78960;SDS011;68362;45.970;12.646;2024-01-06T00:29:17;10.82;;;3.75;;
78960;SDS011;68362;45.970;12.646;2024-01-06T00:30:20;16.05;;;5.57;;
78960;SDS011;68362;45.970;12.646;2024-01-06T00:31:22;21.73;;;8.23;;
78960;SDS011;68362;45.970;12.646;2024-01-06T00:32:24;25.90;;;6.93;;
78960;SDS011;68362;45.970;12.646;2024-01-06T00:33:26;23.23;;;7.57;;
78960;SDS011;68362;45.970;12.646;2024-01-06T00:34:29;21.80;;;7.00;;
78960;SDS011;68362;45.970;12.646;2024-01-06T00:35:31;11.48;;;4.93;;
78960;SDS011;68362;45.970;12.646;2024-01-06T00:36:33;8.05;;;2.60;;
78960;SDS011;68362;45.970;12.646;2024-01-06T00:37:36;6.05;;;2.28;;
78960;SDS011;68362;45.970;12.646;2024-01-06T00:38:38;4.22;;;2.30;;
78960;SDS011;68362;45.970;12.646;2024-01-06T00:39:40;3.78;;;1.60;;
78960;SDS011;68362;45.970;12.646;2024-01-06T00:40:42;2.38;;;1.30;;
78960;SDS011;68362;45.970;12.646;2024-01-06T00:41:44;2.42;;;1.15;;
78960;SDS011;68362;45.970;12.646;2024-01-06T00:43:49;6.93;;;1.80;;
78960;SDS011;68362;45.970;12.646;2024-01-06T00:44:51;6.60;;;2.17;;
78960;SDS011;68362;45.970;12.646;2024-01-06T00:45:53;5.05;;;1.70;;
78960;SDS011;68362;45.970;12.646;2024-01-06T00:46:55;3.72;;;1.85;;
78960;SDS011;68362;45.970;12.646;2024-01-06T00:47:58;6.60;;;1.98;;
78960;SDS011;68362;45.970;12.646;2024-01-06T00:49:00;4.28;;;1.73;;
78960;SDS011;68362;45.970;12.646;2024-01-06T00:50:02;2.25;;;0.98;;
78960;SDS011;68362;45.970;12.646;2024-01-06T00:51:05;1.77;;;0.82;;
78960;SDS011;68362;45.970;12.646;2024-01-06T00:52:07;2.40;;;1.50;;
78960;SDS011;68362;45.970;12.646;2024-01-06T00:53:10;2.08;;;1.27;;
78960;SDS011;68362;45.970;12.646;2024-01-06T00:54:13;3.97;;;1.70;;
78960;SDS011;68362;45.970;12.646;2024-01-06T00:55:15;3.60;;;1.17;;
78960;SDS011;68362;45.970;12.646;2024-01-06T00:56:17;4.70;;;2.03;;
78960;SDS011;68362;45.970;12.646;2024-01-06T00:57:19;5.70;;;2.30;;
78960;SDS011;68362;45.970;12.646;2024-01-06T00:58:26;5.15;;;2.45;;
78960;SDS011;68362;45.970;12.646;2024-01-06T00:59:28;7.30;;;2.22;;
78960;SDS011;68362;45.970;12.646;2024-01-06T01:00:30;5.72;;;2.17;;
78960;SDS011;68362;45.970;12.646;2024-01-06T01:01:32;6.43;;;2.30;;
78960;SDS011;68362;45.970;12.646;2024-01-06T01:02:34;8.27;;;3.22;;
78960;SDS011;68362;45.970;12.646;2024-01-06T01:03:40;8.43;;;3.13;;
78960;SDS011;68362;45.970;12.646;2024-01-06T01:04:43;6.00;;;4.05;;
78960;SDS011;68362;45.970;12.646;2024-01-06T01:05:45;4.75;;;2.22;;
78960;SDS011;68362;45.970;12.646;2024-01-06T01:06:47;3.35;;;1.73;;
78960;SDS011;68362;45.970;12.646;2024-01-06T01:08:52;3.20;;;1.15;;
78960;SDS011;68362;45.970;12.646;2024-01-06T01:09:54;3.75;;;1.60;;
78960;SDS011;68362;45.970;12.646;2024-01-06T01:10:58;5.38;;;1.60;;
78960;SDS011;68362;45.970;12.646;2024-01-06T01:12:00;3.70;;;1.70;;
78960;SDS011;68362;45.970;12.646;2024-01-06T01:13:03;2.63;;;1.52;;
78960;SDS011;68362;45.970;12.646;2024-01-06T01:14:05;4.28;;;1.60;;
78960;SDS011;68362;45.970;12.646;2024-01-06T01:15:07;2.67;;;1.20;;
78960;SDS011;68362;45.970;12.646;2024-01-06T01:16:10;3.83;;;1.15;;
78960;SDS011;68362;45.970;12.646;2024-01-06T01:17:12;3.30;;;1.38;;
78960;SDS011;68362;45.970;12.646;2024-01-06T01:18:14;2.72;;;1.35;;
78960;SDS011;68362;45.970;12.646;2024-01-06T01:19:17;2.85;;;1.30;;
78960;SDS011;68362;45.970;12.646;2024-01-06T01:20:20;3.38;;;1.55;;
78960;SDS011;68362;45.970;12.646;2024-01-06T01:21:22;4.60;;;1.67;;
78960;SDS011;68362;45.970;12.646;2024-01-06T01:22:24;1.90;;;1.50;;
78960;SDS011;68362;45.970;12.646;2024-01-06T01:23:26;3.70;;;1.60;;
78960;SDS011;68362;45.970;12.646;2024-01-06T01:24:29;5.38;;;1.55;;
78960;SDS011;68362;45.970;12.646;2024-01-06T01:25:31;2.78;;;1.65;;
78960;SDS011;68362;45.970;12.646;2024-01-06T01:26:33;2.70;;;1.67;;
78960;SDS011;68362;45.970;12.646;2024-01-06T01:27:35;3.03;;;1.58;;
78960;SDS011;68362;45.970;12.646;2024-01-06T01:28:37;3.13;;;1.25;;
78960;SDS011;68362;45.970;12.646;2024-01-06T01:29:39;2.15;;;1.02;;
78960;SDS011;68362;45.970;12.646;2024-01-06T01:30:41;4.63;;;1.40;;
78960;SDS011;68362;45.970;12.646;2024-01-06T01:31:44;3.92;;;1.38;;
78960;SDS011;68362;45.970;12.646;2024-01-06T01:32:46;5.20;;;1.08;;
78960;SDS011;68362;45.970;12.646;2024-01-06T01:33:49;2.92;;;1.45;;
78960;SDS011;68362;45.970;12.646;2024-01-06T01:34:51;1.50;;;0.82;;
78960;SDS011;68362;45.970;12.646;2024-01-06T01:35:53;1.10;;;0.80;;
78960;SDS011;68362;45.970;12.646;2024-01-06T01:36:56;2.17;;;0.98;;
78960;SDS011;68362;45.970;12.646;2024-01-06T01:37:58;3.40;;;0.82;;
78960;SDS011;68362;45.970;12.646;2024-01-06T01:39:00;3.80;;;1.10;;
78960;SDS011;68362;45.970;12.646;2024-01-06T01:40:02;1.52;;;0.80;;
78960;SDS011;68362;45.970;12.646;2024-01-06T01:41:05;1.52;;;0.70;;
78960;SDS011;68362;45.970;12.646;2024-01-06T01:42:07;2.72;;;1.15;;
78960;SDS011;68362;45.970;12.646;2024-01-06T01:43:21;3.05;;;1.10;;
78960;SDS011;68362;45.970;12.646;2024-01-06T01:44:23;6.88;;;2.03;;
78960;SDS011;68362;45.970;12.646;2024-01-06T01:45:25;9.15;;;3.30;;
78960;SDS011;68362;45.970;12.646;2024-01-06T01:46:28;6.10;;;2.38;;
78960;SDS011;68362;45.970;12.646;2024-01-06T01:47:31;5.38;;;2.60;;
78960;SDS011;68362;45.970;12.646;2024-01-06T01:48:33;5.00;;;2.00;;
78960;SDS011;68362;45.970;12.646;2024-01-06T01:49:37;5.70;;;1.83;;
78960;SDS011;68362;45.970;12.646;2024-01-06T01:50:40;2.45;;;0.95;;
78960;SDS011;68362;45.970;12.646;2024-01-06T01:51:42;1.65;;;0.60;;
78960;SDS011;68362;45.970;12.646;2024-01-06T01:52:46;0.40;;;0.20;;
78960;SDS011;68362;45.970;12.646;2024-01-06T01:53:49;0.60;;;0.20;;
78960;SDS011;68362;45.970;12.646;2024-01-06T01:54:51;0.20;;;0.10;;
78960;SDS011;68362;45.970;12.646;2024-01-06T01:55:54;0.90;;;0.20;;
78960;SDS011;68362;45.970;12.646;2024-01-06T01:56:56;1.33;;;0.20;;
78960;SDS011;68362;45.970;12.646;2024-01-06T01:57:59;0.88;;;0.30;;
78960;SDS011;68362;45.970;12.646;2024-01-06T01:59:03;2.03;;;0.60;;
78960;SDS011;68362;45.970;12.646;2024-01-06T02:00:09;1.17;;;0.40;;
78960;SDS011;68362;45.970;12.646;2024-01-06T02:02:14;5.38;;;1.50;;
78960;SDS011;68362;45.970;12.646;2024-01-06T02:03:17;2.88;;;0.95;;
78960;SDS011;68362;45.970;12.646;2024-01-06T02:04:20;4.30;;;1.17;;
78960;SDS011;68362;45.970;12.646;2024-01-06T02:05:21;3.08;;;1.08;;
78960;SDS011;68362;45.970;12.646;2024-01-06T02:06:24;5.38;;;1.00;;
78960;SDS011;68362;45.970;12.646;2024-01-06T02:07:26;1.45;;;0.70;;
78960;SDS011;68362;45.970;12.646;2024-01-06T02:08:28;3.97;;;0.70;;
78960;SDS011;68362;45.970;12.646;2024-01-06T02:09:30;0.90;;;0.50;;
78960;SDS011;68362;45.970;12.646;2024-01-06T02:10:33;1.63;;;0.47;;
78960;SDS011;68362;45.970;12.646;2024-01-06T02:11:36;1.52;;;0.80;;
78960;SDS011;68362;45.970;12.646;2024-01-06T02:12:38;2.30;;;0.80;;
78960;SDS011;68362;45.970;12.646;2024-01-06T02:13:40;2.28;;;0.60;;
78960;SDS011;68362;45.970;12.646;2024-01-06T02:14:43;3.10;;;0.80;;
78960;SDS011;68362;45.970;12.646;2024-01-06T02:15:45;1.27;;;0.60;;
78960;SDS011;68362;45.970;12.646;2024-01-06T02:16:47;0.57;;;0.28;;
78960;SDS011;68362;45.970;12.646;2024-01-06T02:17:49;1.20;;;0.50;;
78960;SDS011;68362;45.970;12.646;2024-01-06T02:18:52;1.45;;;0.70;;
78960;SDS011;68362;45.970;12.646;2024-01-06T02:19:54;2.50;;;1.13;;
78960;SDS011;68362;45.970;12.646;2024-01-06T02:21:00;3.38;;;1.45;;
78960;SDS011;68362;45.970;12.646;2024-01-06T02:22:03;4.18;;;1.88;;
78960;SDS011;68362;45.970;12.646;2024-01-06T02:23:05;3.70;;;1.60;;
78960;SDS011;68362;45.970;12.646;2024-01-06T02:24:07;4.00;;;1.65;;
78960;SDS011;68362;45.970;12.646;2024-01-06T02:25:09;4.78;;;1.92;;
78960;SDS011;68362;45.970;12.646;2024-01-06T02:26:14;6.00;;;2.55;;
78960;SDS011;68362;45.970;12.646;2024-01-06T02:27:17;6.55;;;3.17;;
78960;SDS011;68362;45.970;12.646;2024-01-06T02:28:19;4.53;;;2.70;;
78960;SDS011;68362;45.970;12.646;2024-01-06T02:29:22;6.68;;;1.80;;
78960;SDS011;68362;45.970;12.646;2024-01-06T02:30:24;5.55;;;2.08;;
78960;SDS011;68362;45.970;12.646;2024-01-06T02:31:26;1.83;;;0.80;;
78960;SDS011;68362;45.970;12.646;2024-01-06T02:32:29;1.52;;;0.60;;
78960;SDS011;68362;45.970;12.646;2024-01-06T02:33:31;1.85;;;0.40;;
78960;SDS011;68362;45.970;12.646;2024-01-06T02:34:34;0.68;;;0.35;;
78960;SDS011;68362;45.970;12.646;2024-01-06T02:35:37;0.93;;;0.40;;
78960;SDS011;68362;45.970;12.646;2024-01-06T02:36:39;0.70;;;0.20;;
78960;SDS011;68362;45.970;12.646;2024-01-06T02:37:41;2.67;;;0.35;;
78960;SDS011;68362;45.970;12.646;2024-01-06T02:38:43;1.02;;;0.22;;
78960;SDS011;68362;45.970;12.646;2024-01-06T02:39:45;0.65;;;0.40;;
78960;SDS011;68362;45.970;12.646;2024-01-06T02:40:47;1.05;;;0.35;;
78960;SDS011;68362;45.970;12.646;2024-01-06T02:41:49;0.77;;;0.52;;
78960;SDS011;68362;45.970;12.646;2024-01-06T02:42:52;1.48;;;0.52;;
78960;SDS011;68362;45.970;12.646;2024-01-06T02:43:54;2.83;;;1.02;;
78960;SDS011;68362;45.970;12.646;2024-01-06T02:44:58;2.35;;;0.60;;
78960;SDS011;68362;45.970;12.646;2024-01-06T02:46:00;1.98;;;0.80;;
78960;SDS011;68362;45.970;12.646;2024-01-06T02:47:02;2.60;;;0.90;;
78960;SDS011;68362;45.970;12.646;2024-01-06T02:48:04;2.58;;;1.05;;
78960;SDS011;68362;45.970;12.646;2024-01-06T02:49:07;2.65;;;0.80;;
78960;SDS011;68362;45.970;12.646;2024-01-06T02:50:10;2.15;;;0.77;;
78960;SDS011;68362;45.970;12.646;2024-01-06T02:51:12;1.80;;;0.35;;
78960;SDS011;68362;45.970;12.646;2024-01-06T02:52:15;1.42;;;0.70;;
78960;SDS011;68362;45.970;12.646;2024-01-06T02:53:17;4.22;;;0.75;;
78960;SDS011;68362;45.970;12.646;2024-01-06T02:54:19;1.50;;;0.57;;
78960;SDS011;68362;45.970;12.646;2024-01-06T02:55:21;1.80;;;0.82;;
78960;SDS011;68362;45.970;12.646;2024-01-06T02:56:23;1.55;;;0.80;;
78960;SDS011;68362;45.970;12.646;2024-01-06T02:57:25;2.25;;;0.63;;
78960;SDS011;68362;45.970;12.646;2024-01-06T02:58:27;3.33;;;1.10;;
78960;SDS011;68362;45.970;12.646;2024-01-06T02:59:29;2.00;;;0.80;;
78960;SDS011;68362;45.970;12.646;2024-01-06T03:00:32;3.03;;;0.65;;
78960;SDS011;68362;45.970;12.646;2024-01-06T03:01:34;1.63;;;0.77;;
78960;SDS011;68362;45.970;12.646;2024-01-06T03:02:37;2.25;;;0.73;;
78960;SDS011;68362;45.970;12.646;2024-01-06T03:03:39;4.60;;;1.23;;
78960;SDS011;68362;45.970;12.646;2024-01-06T03:04:41;3.78;;;0.80;;
78960;SDS011;68362;45.970;12.646;2024-01-06T03:05:44;4.20;;;1.35;;
78960;SDS011;68362;45.970;12.646;2024-01-06T03:06:46;4.25;;;1.40;;
78960;SDS011;68362;45.970;12.646;2024-01-06T03:07:53;5.75;;;1.15;;
78960;SDS011;68362;45.970;12.646;2024-01-06T03:08:55;3.05;;;1.40;;
78960;SDS011;68362;45.970;12.646;2024-01-06T03:09:57;2.05;;;0.75;;
78960;SDS011;68362;45.970;12.646;2024-01-06T03:11:00;4.85;;;1.02;;
78960;SDS011;68362;45.970;12.646;2024-01-06T03:12:03;3.63;;;1.08;;
78960;SDS011;68362;45.970;12.646;2024-01-06T03:13:05;2.10;;;0.93;;
78960;SDS011;68362;45.970;12.646;2024-01-06T03:14:07;4.88;;;1.67;;
78960;SDS011;68362;45.970;12.646;2024-01-06T03:15:10;3.72;;;1.45;;
78960;SDS011;68362;45.970;12.646;2024-01-06T03:16:13;2.20;;;1.00;;
78960;SDS011;68362;45.970;12.646;2024-01-06T03:17:16;3.28;;;1.10;;
78960;SDS011;68362;45.970;12.646;2024-01-06T03:18:18;4.68;;;1.52;;
78960;SDS011;68362;45.970;12.646;2024-01-06T03:19:20;4.68;;;1.50;;
78960;SDS011;68362;45.970;12.646;2024-01-06T03:20:22;3.15;;;1.50;;
78960;SDS011;68362;45.970;12.646;2024-01-06T03:21:25;4.80;;;1.50;;
78960;SDS011;68362;45.970;12.646;2024-01-06T03:22:28;4.30;;;1.60;;
78960;SDS011;68362;45.970;12.646;2024-01-06T03:23:30;3.33;;;1.60;;
78960;SDS011;68362;45.970;12.646;2024-01-06T03:24:33;4.53;;;1.67;;
78960;SDS011;68362;45.970;12.646;2024-01-06T03:25:36;2.83;;;1.30;;
78960;SDS011;68362;45.970;12.646;2024-01-06T03:26:38;3.50;;;1.10;;
78960;SDS011;68362;45.970;12.646;2024-01-06T03:27:40;2.25;;;1.15;;
78960;SDS011;68362;45.970;12.646;2024-01-06T03:28:42;2.40;;;1.25;;
78960;SDS011;68362;45.970;12.646;2024-01-06T03:29:45;2.53;;;1.20;;
78960;SDS011;68362;45.970;12.646;2024-01-06T03:30:47;3.17;;;1.25;;
78960;SDS011;68362;45.970;12.646;2024-01-06T03:31:49;4.20;;;1.40;;
78960;SDS011;68362;45.970;12.646;2024-01-06T03:32:51;3.90;;;1.40;;
78960;SDS011;68362;45.970;12.646;2024-01-06T03:33:54;4.40;;;1.60;;
78960;SDS011;68362;45.970;12.646;2024-01-06T03:34:57;3.40;;;1.83;;
78960;SDS011;68362;45.970;12.646;2024-01-06T03:36:03;4.63;;;2.00;;
78960;SDS011;68362;45.970;12.646;2024-01-06T03:37:07;5.25;;;1.98;;
78960;SDS011;68362;45.970;12.646;2024-01-06T03:38:09;4.88;;;1.83;;
78960;SDS011;68362;45.970;12.646;2024-01-06T03:39:11;4.70;;;1.30;;
78960;SDS011;68362;45.970;12.646;2024-01-06T03:40:15;2.95;;;1.00;;
78960;SDS011;68362;45.970;12.646;2024-01-06T03:41:17;2.58;;;1.00;;
78960;SDS011;68362;45.970;12.646;2024-01-06T03:42:19;1.10;;;0.57;;
78960;SDS011;68362;45.970;12.646;2024-01-06T03:43:21;2.08;;;0.85;;
78960;SDS011;68362;45.970;12.646;2024-01-06T03:44:24;1.67;;;0.73;;
78960;SDS011;68362;45.970;12.646;2024-01-06T03:45:27;1.27;;;0.63;;
78960;SDS011;68362;45.970;12.646;2024-01-06T03:46:29;1.45;;;0.63;;
78960;SDS011;68362;45.970;12.646;2024-01-06T03:47:31;0.65;;;0.30;;
78960;SDS011;68362;45.970;12.646;2024-01-06T03:48:33;1.50;;;0.55;;
78960;SDS011;68362;45.970;12.646;2024-01-06T03:49:36;2.05;;;0.50;;
78960;SDS011;68362;45.970;12.646;2024-01-06T03:50:38;0.52;;;0.13;;
78960;SDS011;68362;45.970;12.646;2024-01-06T03:51:40;0.47;;;0.20;;
78960;SDS011;68362;45.970;12.646;2024-01-06T03:52:43;0.35;;;0.13;;
78960;SDS011;68362;45.970;12.646;2024-01-06T03:53:45;0.30;;;0.10;;
78960;SDS011;68362;45.970;12.646;2024-01-06T03:54:47;0.40;;;0.20;;
78960;SDS011;68362;45.970;12.646;2024-01-06T03:55:49;0.17;;;0.13;;
78960;SDS011;68362;45.970;12.646;2024-01-06T03:56:51;0.10;;;0.08;;
78960;SDS011;68362;45.970;12.646;2024-01-06T03:57:54;0.10;;;0.10;;
78960;SDS011;68362;45.970;12.646;2024-01-06T03:58:56;0.20;;;0.10;;
78960;SDS011;68362;45.970;12.646;2024-01-06T03:59:59;0.10;;;0.10;;
78960;SDS011;68362;45.970;12.646;2024-01-06T04:01:02;0.43;;;0.10;;
78960;SDS011;68362;45.970;12.646;2024-01-06T04:02:04;0.22;;;0.10;;
78960;SDS011;68362;45.970;12.646;2024-01-06T04:03:07;0.20;;;0.10;;
78960;SDS011;68362;45.970;12.646;2024-01-06T04:04:10;0.00;;;0.00;;
78960;SDS011;68362;45.970;12.646;2024-01-06T04:05:13;0.20;;;0.10;;
78960;SDS011;68362;45.970;12.646;2024-01-06T04:06:15;0.20;;;0.00;;
78960;SDS011;68362;45.970;12.646;2024-01-06T04:07:17;0.25;;;0.10;;
78960;SDS011;68362;45.970;12.646;2024-01-06T04:08:19;0.25;;;0.13;;
78960;SDS011;68362;45.970;12.646;2024-01-06T04:09:22;0.35;;;0.10;;
78960;SDS011;68362;45.970;12.646;2024-01-06T04:10:24;0.43;;;0.20;;
78960;SDS011;68362;45.970;12.646;2024-01-06T04:11:26;2.28;;;0.60;;
78960;SDS011;68362;45.970;12.646;2024-01-06T04:12:28;1.70;;;0.45;;
78960;SDS011;68362;45.970;12.646;2024-01-06T04:13:30;2.63;;;0.60;;
78960;SDS011;68362;45.970;12.646;2024-01-06T04:14:33;1.45;;;0.70;;
78960;SDS011;68362;45.970;12.646;2024-01-06T04:15:35;2.08;;;0.70;;
78960;SDS011;68362;45.970;12.646;2024-01-06T04:16:37;1.70;;;1.05;;
78960;SDS011;68362;45.970;12.646;2024-01-06T04:17:39;2.90;;;0.90;;
78960;SDS011;68362;45.970;12.646;2024-01-06T04:18:42;1.58;;;1.20;;
78960;SDS011;68362;45.970;12.646;2024-01-06T04:19:44;3.20;;;0.57;;
78960;SDS011;68362;45.970;12.646;2024-01-06T04:20:47;2.05;;;0.70;;
78960;SDS011;68362;45.970;12.646;2024-01-06T04:21:49;1.88;;;0.65;;
78960;SDS011;68362;45.970;12.646;2024-01-06T04:22:51;1.13;;;0.75;;
78960;SDS011;68362;45.970;12.646;2024-01-06T04:23:53;1.50;;;0.60;;
78960;SDS011;68362;45.970;12.646;2024-01-06T04:24:57;1.70;;;0.95;;
78960;SDS011;68362;45.970;12.646;2024-01-06T04:25:59;3.78;;;1.13;;
78960;SDS011;68362;45.970;12.646;2024-01-06T04:27:02;2.92;;;1.10;;
78960;SDS011;68362;45.970;12.646;2024-01-06T04:28:04;2.83;;;0.90;;
78960;SDS011;68362;45.970;12.646;2024-01-06T04:29:07;2.42;;;0.50;;
78960;SDS011;68362;45.970;12.646;2024-01-06T04:30:10;3.10;;;0.60;;
78960;SDS011;68362;45.970;12.646;2024-01-06T04:31:12;2.20;;;0.82;;
78960;SDS011;68362;45.970;12.646;2024-01-06T04:32:15;0.95;;;0.52;;
78960;SDS011;68362;45.970;12.646;2024-01-06T04:33:17;0.28;;;0.20;;
78960;SDS011;68362;45.970;12.646;2024-01-06T04:34:20;0.93;;;0.43;;
78960;SDS011;68362;45.970;12.646;2024-01-06T04:35:22;0.55;;;0.20;;
78960;SDS011;68362;45.970;12.646;2024-01-06T04:36:25;1.38;;;0.20;;
78960;SDS011;68362;45.970;12.646;2024-01-06T04:37:27;0.98;;;0.25;;
78960;SDS011;68362;45.970;12.646;2024-01-06T04:38:29;0.73;;;0.20;;
78960;SDS011;68362;45.970;12.646;2024-01-06T04:39:31;0.75;;;0.32;;
78960;SDS011;68362;45.970;12.646;2024-01-06T04:40:38;1.30;;;0.40;;
78960;SDS011;68362;45.970;12.646;2024-01-06T04:41:40;0.68;;;0.25;;
78960;SDS011;68362;45.970;12.646;2024-01-06T04:42:42;0.32;;;0.13;;
78960;SDS011;68362;45.970;12.646;2024-01-06T04:43:45;0.70;;;0.40;;
78960;SDS011;68362;45.970;12.646;2024-01-06T04:44:49;0.85;;;0.30;;
78960;SDS011;68362;45.970;12.646;2024-01-06T04:45:51;2.40;;;0.40;;
78960;SDS011;68362;45.970;12.646;2024-01-06T04:46:53;0.63;;;0.40;;
78960;SDS011;68362;45.970;12.646;2024-01-06T04:47:56;1.95;;;0.43;;
78960;SDS011;68362;45.970;12.646;2024-01-06T04:48:58;0.73;;;0.30;;
78960;SDS011;68362;45.970;12.646;2024-01-06T04:50:00;1.48;;;0.50;;
78960;SDS011;68362;45.970;12.646;2024-01-06T04:51:02;1.27;;;0.30;;
78960;SDS011;68362;45.970;12.646;2024-01-06T04:52:05;0.43;;;0.20;;
78960;SDS011;68362;45.970;12.646;2024-01-06T04:53:07;0.47;;;0.40;;
78960;SDS011;68362;45.970;12.646;2024-01-06T04:54:10;0.82;;;0.28;;
78960;SDS011;68362;45.970;12.646;2024-01-06T04:55:12;1.13;;;0.43;;
78960;SDS011;68362;45.970;12.646;2024-01-06T04:56:14;1.65;;;0.68;;
78960;SDS011;68362;45.970;12.646;2024-01-06T04:57:16;0.38;;;0.25;;
78960;SDS011;68362;45.970;12.646;2024-01-06T04:58:19;0.95;;;0.30;;
78960;SDS011;68362;45.970;12.646;2024-01-06T04:59:21;2.70;;;0.75;;
78960;SDS011;68362;45.970;12.646;2024-01-06T05:00:23;1.38;;;0.30;;
78960;SDS011;68362;45.970;12.646;2024-01-06T05:01:27;1.15;;;0.57;;
78960;SDS011;68362;45.970;12.646;2024-01-06T05:02:30;2.05;;;0.40;;
78960;SDS011;68362;45.970;12.646;2024-01-06T05:03:32;0.93;;;0.35;;
78960;SDS011;68362;45.970;12.646;2024-01-06T05:04:34;1.33;;;0.30;;
78960;SDS011;68362;45.970;12.646;2024-01-06T05:05:36;0.65;;;0.50;;
78960;SDS011;68362;45.970;12.646;2024-01-06T05:06:39;0.20;;;0.13;;
78960;SDS011;68362;45.970;12.646;2024-01-06T05:07:41;5.93;;;0.47;;
78960;SDS011;68362;45.970;12.646;2024-01-06T05:08:43;0.50;;;0.20;;
78960;SDS011;68362;45.970;12.646;2024-01-06T05:09:47;0.40;;;0.10;;
78960;SDS011;68362;45.970;12.646;2024-01-06T05:10:49;1.08;;;0.10;;
78960;SDS011;68362;45.970;12.646;2024-01-06T05:11:52;0.80;;;0.15;;
78960;SDS011;68362;45.970;12.646;2024-01-06T05:12:54;0.73;;;0.10;;
78960;SDS011;68362;45.970;12.646;2024-01-06T05:13:57;0.20;;;0.20;;
78960;SDS011;68362;45.970;12.646;2024-01-06T05:14:59;0.28;;;0.20;;
78960;SDS011;68362;45.970;12.646;2024-01-06T05:16:01;2.45;;;0.22;;
78960;SDS011;68362;45.970;12.646;2024-01-06T05:17:04;1.85;;;0.20;;
78960;SDS011;68362;45.970;12.646;2024-01-06T05:18:06;0.08;;;0.05;;
78960;SDS011;68362;45.970;12.646;2024-01-06T05:19:08;0.17;;;0.10;;
78960;SDS011;68362;45.970;12.646;2024-01-06T05:20:11;0.10;;;0.10;;
78960;SDS011;68362;45.970;12.646;2024-01-06T05:21:13;0.70;;;0.52;;
78960;SDS011;68362;45.970;12.646;2024-01-06T05:22:15;1.35;;;0.40;;
78960;SDS011;68362;45.970;12.646;2024-01-06T05:23:17;3.10;;;0.47;;
78960;SDS011;68362;45.970;12.646;2024-01-06T05:24:19;1.73;;;0.85;;
78960;SDS011;68362;45.970;12.646;2024-01-06T05:25:22;2.85;;;0.75;;
78960;SDS011;68362;45.970;12.646;2024-01-06T05:26:24;2.17;;;0.65;;
78960;SDS011;68362;45.970;12.646;2024-01-06T05:27:26;2.72;;;0.52;;
78960;SDS011;68362;45.970;12.646;2024-01-06T05:28:28;3.80;;;0.90;;
78960;SDS011;68362;45.970;12.646;2024-01-06T05:29:30;1.65;;;0.57;;
78960;SDS011;68362;45.970;12.646;2024-01-06T05:30:33;1.38;;;0.93;;
78960;SDS011;68362;45.970;12.646;2024-01-06T05:31:35;3.13;;;1.10;;
78960;SDS011;68362;45.970;12.646;2024-01-06T05:32:37;3.22;;;1.00;;
78960;SDS011;68362;45.970;12.646;2024-01-06T05:33:40;1.60;;;0.90;;
78960;SDS011;68362;45.970;12.646;2024-01-06T05:34:42;5.70;;;1.00;;
78960;SDS011;68362;45.970;12.646;2024-01-06T05:35:46;1.90;;;0.60;;
78960;SDS011;68362;45.970;12.646;2024-01-06T05:36:48;2.70;;;1.05;;
78960;SDS011;68362;45.970;12.646;2024-01-06T05:37:50;1.30;;;0.82;;
78960;SDS011;68362;45.970;12.646;2024-01-06T05:38:52;3.08;;;1.00;;
78960;SDS011;68362;45.970;12.646;2024-01-06T05:39:55;3.05;;;0.73;;
78960;SDS011;68362;45.970;12.646;2024-01-06T05:40:57;1.83;;;0.70;;
78960;SDS011;68362;45.970;12.646;2024-01-06T05:41:59;1.95;;;0.80;;
78960;SDS011;68362;45.970;12.646;2024-01-06T05:43:01;1.88;;;0.60;;
78960;SDS011;68362;45.970;12.646;2024-01-06T05:44:03;2.90;;;1.17;;
78960;SDS011;68362;45.970;12.646;2024-01-06T05:45:06;2.10;;;0.50;;
78960;SDS011;68362;45.970;12.646;2024-01-06T05:46:08;3.80;;;0.93;;
78960;SDS011;68362;45.970;12.646;2024-01-06T05:47:12;3.28;;;1.20;;
78960;SDS011;68362;45.970;12.646;2024-01-06T05:48:14;2.58;;;0.73;;
78960;SDS011;68362;45.970;12.646;2024-01-06T05:49:17;1.77;;;0.80;;
78960;SDS011;68362;45.970;12.646;2024-01-06T05:50:19;2.83;;;1.25;;
78960;SDS011;68362;45.970;12.646;2024-01-06T05:51:22;2.83;;;0.95;;
78960;SDS011;68362;45.970;12.646;2024-01-06T05:52:24;2.25;;;1.40;;
78960;SDS011;68362;45.970;12.646;2024-01-06T05:53:26;2.92;;;0.85;;
78960;SDS011;68362;45.970;12.646;2024-01-06T05:54:28;2.17;;;0.75;;
78960;SDS011;68362;45.970;12.646;2024-01-06T05:55:31;3.38;;;0.63;;
78960;SDS011;68362;45.970;12.646;2024-01-06T05:56:33;1.50;;;0.50;;
78960;SDS011;68362;45.970;12.646;2024-01-06T05:57:35;1.27;;;0.65;;
78960;SDS011;68362;45.970;12.646;2024-01-06T05:58:37;2.00;;;0.93;;
78960;SDS011;68362;45.970;12.646;2024-01-06T06:00:42;1.40;;;0.82;;
78960;SDS011;68362;45.970;12.646;2024-01-06T06:01:44;1.45;;;0.50;;
78960;SDS011;68362;45.970;12.646;2024-01-06T06:02:46;0.75;;;0.45;;
78960;SDS011;68362;45.970;12.646;2024-01-06T06:03:49;0.55;;;0.40;;
78960;SDS011;68362;45.970;12.646;2024-01-06T06:04:53;1.52;;;0.45;;
78960;SDS011;68362;45.970;12.646;2024-01-06T06:05:55;1.95;;;0.52;;
78960;SDS011;68362;45.970;12.646;2024-01-06T06:06:57;1.45;;;0.60;;
78960;SDS011;68362;45.970;12.646;2024-01-06T06:08:03;0.52;;;0.40;;
78960;SDS011;68362;45.970;12.646;2024-01-06T06:09:05;0.95;;;0.30;;
78960;SDS011;68362;45.970;12.646;2024-01-06T06:10:09;0.85;;;0.40;;
78960;SDS011;68362;45.970;12.646;2024-01-06T06:11:12;0.85;;;0.60;;
78960;SDS011;68362;45.970;12.646;2024-01-06T06:12:15;0.40;;;0.20;;
78960;SDS011;68362;45.970;12.646;2024-01-06T06:13:17;0.82;;;0.40;;
78960;SDS011;68362;45.970;12.646;2024-01-06T06:14:19;0.82;;;0.45;;